KSBN/SBN METAR and TAF weather

Enter ICAO airport designator
Station Type Date Time Source
KSBN METAR 2021/07/28 04:54 UTC NOAA

KSBN 280454Z AUTO 00000KT 10SM CLR 23/20 A3005 RMK AO2 SLP168 T02330200 403000178


Station Type Date Time Source
KSBN Decoded METAR 2021/07/28 04:54 UTC NOAA

SOUTH BEND REGIONAL AIRPORT, IN, United States (KSBN) 41-42N 086-19W 237M
Jul 28, 2021 - 12:54 AM EDT / 2021.07.28 0454 UTC
Wind: Calm:0
Visibility: 10 mile(s):0
Sky conditions: clear
Temperature: 73.9 F (23.3 C)
Dew Point: 68.0 F (20.0 C)
Relative Humidity: 81%
Pressure (altimeter): 30.05 in. Hg (1017 hPa)
ob: KSBN 280454Z AUTO 00000KT 10SM CLR 23/20 A3005 RMK AO2 SLP168 T02330200 403000178
cycle: 5

Station Type Date Time Source
KSBN TAF 2021/07/28 06:24 UTC NOAA

TAF KSBN 280522Z 2806/2906 24004KT P6SM SCT150
FM290400 22005KT P6SM VCTS SCT045CB

Example: see airport list